createdAt,value
2022-11-21T00:01:17.184Z,59.10
2022-11-21T00:03:50.272Z,60.90
2022-11-21T00:06:23.860Z,66.70
2022-11-21T00:08:58.190Z,61.80
2022-11-21T00:11:30.636Z,63.80
2022-11-21T00:14:03.391Z,64.60
2022-11-21T00:16:35.888Z,65.80
2022-11-21T00:19:08.936Z,70.50
2022-11-21T00:21:41.352Z,73.40
2022-11-21T00:24:15.831Z,70.00
2022-11-21T00:26:48.456Z,69.60
2022-11-21T00:29:20.954Z,65.60
2022-11-21T00:31:53.516Z,62.30
2022-11-21T00:34:26.160Z,62.30
2022-11-21T00:36:58.831Z,59.30
2022-11-21T00:39:31.541Z,68.00
2022-11-21T00:42:04.198Z,61.70
2022-11-21T00:44:36.669Z,64.60
2022-11-21T00:47:09.180Z,54.50
2022-11-21T00:49:41.809Z,60.90
2022-11-21T00:52:14.330Z,60.40
2022-11-21T00:54:46.900Z,50.00
2022-11-21T00:57:19.453Z,46.60
2022-11-21T00:59:52.425Z,69.30
2022-11-21T01:02:25.109Z,45.40
2022-11-21T01:04:57.597Z,56.90
2022-11-21T01:07:30.127Z,56.40
2022-11-21T01:10:02.610Z,53.10
2022-11-21T01:12:35.256Z,51.30
2022-11-21T01:15:09.849Z,55.40
2022-11-21T01:17:42.668Z,57.60
2022-11-21T01:20:15.846Z,47.50
2022-11-21T01:22:48.328Z,56.00
2022-11-21T01:25:21.338Z,54.70
2022-11-21T01:27:53.766Z,50.60
2022-11-21T01:30:26.187Z,51.80
2022-11-21T01:32:58.695Z,58.10
2022-11-21T01:35:31.211Z,54.10
2022-11-21T01:38:03.798Z,46.70
2022-11-21T01:40:41.771Z,51.70
2022-11-21T01:43:17.713Z,56.80
2022-11-21T01:45:59.776Z,47.60
2022-11-21T01:48:39.492Z,52.30
2022-11-21T01:51:18.793Z,43.80
2022-11-21T01:53:57.614Z,40.10
2022-11-21T01:56:35.112Z,41.60
2022-11-21T01:59:08.979Z,51.80
2022-11-21T02:01:41.899Z,47.50
2022-11-21T02:04:14.392Z,45.90
2022-11-21T02:06:47.310Z,48.70
2022-11-21T02:09:20.374Z,44.50
2022-11-21T02:11:59.683Z,46.30
2022-11-21T02:14:32.842Z,47.60
2022-11-21T02:17:08.776Z,47.90
2022-11-21T02:19:52.831Z,44.20
2022-11-21T02:22:35.145Z,45.70
2022-11-21T02:25:13.439Z,41.80
2022-11-21T02:27:46.502Z,47.90
2022-11-21T02:30:20.028Z,46.70
2022-11-21T02:32:52.619Z,47.60
2022-11-21T02:35:25.410Z,37.10
2022-11-21T02:38:01.542Z,40.60
2022-11-21T02:40:38.680Z,43.60
2022-11-21T02:43:16.147Z,40.60
2022-11-21T02:45:49.497Z,42.00
2022-11-21T02:48:22.119Z,48.10
2022-11-21T02:50:54.686Z,35.10
2022-11-21T02:53:27.170Z,43.40
2022-11-21T02:55:59.839Z,41.60
2022-11-21T02:58:32.718Z,42.80
2022-11-21T03:01:05.290Z,46.80
2022-11-21T03:03:37.755Z,41.60
2022-11-21T03:06:10.389Z,36.60
2022-11-21T03:08:42.862Z,41.00
2022-11-21T03:11:15.341Z,42.00
2022-11-21T03:13:47.792Z,44.70
2022-11-21T03:16:20.337Z,35.80
2022-11-21T03:18:52.743Z,45.60
2022-11-21T03:21:25.237Z,38.30
2022-11-21T03:23:57.669Z,37.40
2022-11-21T03:26:30.919Z,35.80
2022-11-21T03:29:03.920Z,42.90
2022-11-21T03:31:36.649Z,43.50
2022-11-21T03:34:09.387Z,39.70
2022-11-21T03:36:42.034Z,36.60
2022-11-21T03:39:14.570Z,39.20
2022-11-21T03:41:47.151Z,36.70
2022-11-21T03:44:19.641Z,37.60
2022-11-21T03:46:52.206Z,42.10
2022-11-21T03:49:24.661Z,37.10
2022-11-21T03:51:57.152Z,38.10
2022-11-21T03:54:29.816Z,33.90
2022-11-21T03:57:02.712Z,38.70
2022-11-21T03:59:35.100Z,34.80
2022-11-21T04:02:09.008Z,38.20
2022-11-21T04:04:41.609Z,42.20
2022-11-21T04:07:14.122Z,37.80
2022-11-21T04:09:46.598Z,42.10
2022-11-21T04:12:19.060Z,40.70
2022-11-21T04:14:51.535Z,41.20
2022-11-21T04:17:23.953Z,39.50
2022-11-21T04:19:56.482Z,38.10
2022-11-21T04:22:28.918Z,36.90
2022-11-21T04:25:01.317Z,38.90
2022-11-21T04:27:33.755Z,38.00
2022-11-21T04:30:07.555Z,36.50
2022-11-21T04:32:40.084Z,35.60
2022-11-21T04:35:13.256Z,37.30
2022-11-21T04:37:45.796Z,42.00
2022-11-21T04:40:19.459Z,40.50
2022-11-21T04:42:52.127Z,29.20
2022-11-21T04:45:24.587Z,35.20
2022-11-21T04:47:57.141Z,35.00
2022-11-21T04:50:29.601Z,39.40
2022-11-21T04:53:02.085Z,38.90
2022-11-21T04:55:35.985Z,42.30
2022-11-21T04:58:08.674Z,39.80
2022-11-21T05:00:41.156Z,35.10
2022-11-21T05:03:13.727Z,36.80
2022-11-21T05:05:46.268Z,45.60
2022-11-21T05:08:18.818Z,37.50
2022-11-21T05:11:09.018Z,33.80
2022-11-21T05:13:41.542Z,36.70
2022-11-21T05:16:14.046Z,36.10
2022-11-21T05:18:46.653Z,35.60
2022-11-21T05:21:19.110Z,45.30
2022-11-21T05:23:51.608Z,34.70
2022-11-21T05:26:24.071Z,35.10
2022-11-21T05:28:56.616Z,33.60
2022-11-21T05:31:29.034Z,41.20
2022-11-21T05:34:01.794Z,29.10
2022-11-21T05:36:34.347Z,33.00
2022-11-21T05:39:07.012Z,32.00
2022-11-21T05:41:39.707Z,31.30
2022-11-21T05:44:12.377Z,37.50
2022-11-21T05:46:45.019Z,32.70
2022-11-21T05:49:18.976Z,34.40
2022-11-21T05:51:51.462Z,34.70
2022-11-21T05:54:24.042Z,31.40
2022-11-21T05:56:56.607Z,29.90
2022-11-21T05:59:29.171Z,34.50
2022-11-21T06:02:19.079Z,38.30
2022-11-21T06:04:51.631Z,29.20
2022-11-21T06:07:24.207Z,40.40
2022-11-21T06:09:56.914Z,34.50
2022-11-21T06:12:29.419Z,35.00
2022-11-21T06:15:01.919Z,30.20
2022-11-21T06:17:34.971Z,36.70
2022-11-21T06:20:09.446Z,31.80
2022-11-21T06:22:41.996Z,34.90
2022-11-21T06:25:14.986Z,37.30
2022-11-21T06:27:47.528Z,39.80
2022-11-21T06:30:22.335Z,30.20
2022-11-21T06:32:55.091Z,38.40
2022-11-21T06:35:27.603Z,36.90
2022-11-21T06:38:00.490Z,37.40
2022-11-21T06:40:33.047Z,35.60
2022-11-21T06:43:05.583Z,36.90
2022-11-21T06:45:38.035Z,37.70
2022-11-21T06:48:11.212Z,39.10
2022-11-21T06:50:44.031Z,39.90
2022-11-21T06:53:16.547Z,40.10
2022-11-21T06:55:49.054Z,42.70
2022-11-21T06:58:23.635Z,38.20
2022-11-21T07:00:56.466Z,44.30
2022-11-21T07:03:28.952Z,39.20
2022-11-21T07:06:02.827Z,41.70
2022-11-21T07:08:37.711Z,37.40
2022-11-21T07:11:29.039Z,42.20
2022-11-21T07:14:06.256Z,39.10
2022-11-21T07:16:41.418Z,43.20
2022-11-21T07:19:14.182Z,38.20
2022-11-21T07:21:46.652Z,40.80
2022-11-21T07:24:19.229Z,49.00
2022-11-21T07:26:51.823Z,51.00
2022-11-21T07:29:24.630Z,67.80
2022-11-21T07:31:57.260Z,66.10
2022-11-21T07:34:29.708Z,50.90
2022-11-21T07:37:05.151Z,44.40
2022-11-21T07:39:37.863Z,46.90
2022-11-21T07:42:10.377Z,47.20
2022-11-21T07:44:42.845Z,50.10
2022-11-21T07:47:15.492Z,47.10
2022-11-21T07:49:48.184Z,45.50
2022-11-21T07:52:21.019Z,47.70
2022-11-21T07:54:53.834Z,43.40
2022-11-21T07:57:27.284Z,45.80
2022-11-21T07:59:59.704Z,45.20
2022-11-21T08:02:32.486Z,49.90
2022-11-21T08:05:05.165Z,70.00
2022-11-21T08:07:37.697Z,51.30
2022-11-21T08:10:11.452Z,48.80
2022-11-21T08:12:44.163Z,50.90
2022-11-21T08:15:16.781Z,49.20
2022-11-21T08:17:49.313Z,53.00
2022-11-21T08:20:21.993Z,43.30
2022-11-21T08:22:54.457Z,58.40
2022-11-21T08:25:27.285Z,44.50
2022-11-21T08:28:02.935Z,37.80
2022-11-21T08:30:36.420Z,39.00
2022-11-21T08:33:09.420Z,37.20
2022-11-21T08:35:42.353Z,41.90
2022-11-21T08:38:14.853Z,34.00
2022-11-21T08:40:47.419Z,39.60
2022-11-21T08:43:19.935Z,33.80
2022-11-21T08:45:52.411Z,38.10
2022-11-21T08:48:24.934Z,50.40
2022-11-21T08:50:59.460Z,53.60
2022-11-21T08:53:31.976Z,47.90
2022-11-21T08:56:04.776Z,55.00
2022-11-21T08:58:37.302Z,46.80
2022-11-21T09:01:09.842Z,58.40
2022-11-21T09:03:42.383Z,44.30
2022-11-21T09:06:14.923Z,55.40
2022-11-21T09:08:47.491Z,52.10
2022-11-21T09:11:20.169Z,59.10
2022-11-21T09:14:06.677Z,65.10
2022-11-21T09:17:01.812Z,42.50
2022-11-21T09:19:34.972Z,38.90
2022-11-21T09:22:07.526Z,36.00
2022-11-21T09:24:40.066Z,47.00
2022-11-21T09:27:12.578Z,34.10
2022-11-21T09:29:51.075Z,29.50
2022-11-21T09:32:26.799Z,31.60
2022-11-21T09:34:59.278Z,29.80
2022-11-21T09:37:32.054Z,30.10
2022-11-21T09:40:07.319Z,35.50
2022-11-21T09:43:04.432Z,30.40
2022-11-21T09:45:43.292Z,29.20
2022-11-21T09:48:22.732Z,25.90
2022-11-21T09:51:00.263Z,21.30
2022-11-21T09:53:36.112Z,24.60
2022-11-21T09:56:12.376Z,23.40
2022-11-21T09:58:50.194Z,25.00
2022-11-21T10:01:22.741Z,24.70
2022-11-21T10:03:55.575Z,27.40
2022-11-21T10:06:31.929Z,27.40
2022-11-21T10:09:16.370Z,26.90
2022-11-21T10:12:16.056Z,24.70
2022-11-21T10:15:02.339Z,19.20
2022-11-21T10:17:45.609Z,17.50
2022-11-21T10:20:49.473Z,19.90
2022-11-21T10:23:42.967Z,19.50
2022-11-21T10:26:31.118Z,18.50
2022-11-21T10:29:10.512Z,22.30
2022-11-21T10:31:44.494Z,22.20
2022-11-21T10:34:20.466Z,18.60
2022-11-21T10:36:59.036Z,23.60
2022-11-21T10:39:38.667Z,22.00
2022-11-21T10:42:27.685Z,22.40
2022-11-21T10:45:18.584Z,16.10
2022-11-21T10:47:52.896Z,19.20
2022-11-21T10:50:45.248Z,18.30
2022-11-21T10:53:39.840Z,16.40
2022-11-21T10:56:16.015Z,17.60
2022-11-21T10:58:51.237Z,18.50
2022-11-21T11:01:31.493Z,24.00
2022-11-21T11:04:27.869Z,19.90
2022-11-21T11:07:21.924Z,15.90
2022-11-21T11:10:14.731Z,18.60
2022-11-21T11:13:30.924Z,23.10
2022-11-21T11:16:07.925Z,23.00
2022-11-21T11:18:47.123Z,16.20
2022-11-21T11:21:23.279Z,16.10
2022-11-21T11:24:07.709Z,13.00
2022-11-21T11:26:53.610Z,14.90
2022-11-21T11:29:27.866Z,15.10
2022-11-21T11:32:04.513Z,19.10
2022-11-21T11:34:50.932Z,16.70
2022-11-21T11:37:39.812Z,16.30
2022-11-21T11:40:31.075Z,11.80
2022-11-21T11:43:43.795Z,13.30
2022-11-21T11:47:01.052Z,13.70
2022-11-21T11:49:55.879Z,14.50
2022-11-21T11:52:35.115Z,17.30
2022-11-21T11:55:18.238Z,11.50
2022-11-21T11:57:54.161Z,17.10
2022-11-21T12:00:36.485Z,14.40
2022-11-21T12:03:19.861Z,14.40
2022-11-21T12:06:09.159Z,16.80
2022-11-21T12:08:51.817Z,21.70
2022-11-21T12:11:53.357Z,25.90
2022-11-21T12:15:03.001Z,18.40
2022-11-21T12:17:42.961Z,14.30
2022-11-21T12:20:24.007Z,16.00
2022-11-21T12:22:57.908Z,16.80
2022-11-21T12:25:36.292Z,16.50
2022-11-21T12:28:22.538Z,15.40
2022-11-21T12:31:10.618Z,17.70
2022-11-21T12:33:52.712Z,20.50
2022-11-21T12:36:40.821Z,20.90
2022-11-21T12:39:48.168Z,22.90
2022-11-21T12:42:47.170Z,20.30
2022-11-21T12:45:33.648Z,21.40
2022-11-21T12:48:41.078Z,22.30
2022-11-21T12:52:00.204Z,24.10
2022-11-21T12:54:58.449Z,22.10
2022-11-21T12:57:43.211Z,18.80
2022-11-21T13:00:26.398Z,18.00
2022-11-21T13:03:27.562Z,19.90
2022-11-21T13:06:02.149Z,19.80
2022-11-21T13:08:39.355Z,19.80
2022-11-21T13:11:38.436Z,22.50
2022-11-21T13:14:20.048Z,21.50
2022-11-21T13:17:04.659Z,20.40
2022-11-21T13:19:51.675Z,18.80
2022-11-21T13:23:01.833Z,18.10
2022-11-21T13:25:48.110Z,20.30
2022-11-21T13:28:40.357Z,20.70
2022-11-21T13:31:34.508Z,18.80
2022-11-21T13:34:27.794Z,21.20
2022-11-21T13:37:03.787Z,21.80
2022-11-21T13:39:40.739Z,20.00
2022-11-21T13:42:37.338Z,19.70
2022-11-21T13:45:45.221Z,19.60
2022-11-21T13:48:52.752Z,17.90
2022-11-21T13:51:52.898Z,20.20
2022-11-21T13:55:05.701Z,18.80
2022-11-21T13:58:14.760Z,21.80
2022-11-21T14:01:13.616Z,16.50
2022-11-21T14:04:33.948Z,17.20
2022-11-21T14:07:29.203Z,16.90
2022-11-21T14:10:03.999Z,18.00
2022-11-21T14:12:44.407Z,16.80
2022-11-21T14:15:27.378Z,19.30
2022-11-21T14:18:02.398Z,17.50
2022-11-21T14:20:49.762Z,14.50
2022-11-21T14:23:24.554Z,20.10
2022-11-21T14:26:01.005Z,16.80
2022-11-21T14:28:36.172Z,16.50
2022-11-21T14:31:11.098Z,20.90
2022-11-21T14:33:45.102Z,19.10
2022-11-21T14:36:21.162Z,22.30
2022-11-21T14:39:34.765Z,23.30
2022-11-21T14:41:52.833Z,28.10
2022-11-21T14:44:26.304Z,27.10
2022-11-21T14:47:25.136Z,22.00
2022-11-21T14:50:07.066Z,25.10
2022-11-21T14:52:40.178Z,21.40
2022-11-21T14:55:30.594Z,22.30
2022-11-21T14:58:06.824Z,28.00
2022-11-21T15:03:31.969Z,29.40
2022-11-21T15:06:08.284Z,25.00
2022-11-21T15:09:33.281Z,29.40
2022-11-21T15:11:40.063Z,24.20
2022-11-21T15:14:24.749Z,29.50
2022-11-21T15:16:59.672Z,31.70
2022-11-21T15:19:33.831Z,32.60
2022-11-21T15:22:07.195Z,32.20
2022-11-21T15:24:43.458Z,29.10
2022-11-21T15:27:36.762Z,26.80
2022-11-21T15:30:28.024Z,28.70
2022-11-21T15:33:13.020Z,29.80
2022-11-21T15:35:57.369Z,31.10
2022-11-21T15:38:42.304Z,34.80
2022-11-21T15:41:33.028Z,24.10
2022-11-21T15:44:25.301Z,22.60
2022-11-21T15:46:57.704Z,20.10
2022-11-21T15:49:33.788Z,18.50
2022-11-21T15:52:13.458Z,19.70
2022-11-21T15:54:47.363Z,19.00
2022-11-21T15:57:22.157Z,21.00
2022-11-21T15:59:55.275Z,22.20
2022-11-21T16:02:27.848Z,18.50
2022-11-21T16:05:00.364Z,18.80
2022-11-21T16:07:33.456Z,18.00
2022-11-21T16:10:09.005Z,21.30
2022-11-21T16:12:47.122Z,23.30
2022-11-21T16:15:19.982Z,22.50
2022-11-21T16:17:54.103Z,21.30
2022-11-21T16:20:26.706Z,27.30
2022-11-21T16:22:59.456Z,17.20
2022-11-21T16:25:32.481Z,25.80
2022-11-21T16:28:07.284Z,22.00
2022-11-21T16:30:43.368Z,24.00
2022-11-21T16:33:15.840Z,24.50
2022-11-21T16:35:49.987Z,24.30
2022-11-21T16:38:22.852Z,24.60
2022-11-21T16:41:00.272Z,28.90
2022-11-21T16:43:33.119Z,22.60
2022-11-21T16:46:10.947Z,26.70
2022-11-21T16:48:43.876Z,24.70
2022-11-21T16:51:18.716Z,25.50
2022-11-21T16:53:52.184Z,23.30
2022-11-21T16:56:24.695Z,24.90
2022-11-21T16:58:57.429Z,28.20
2022-11-21T17:01:30.649Z,24.90
2022-11-21T17:04:03.439Z,26.20
2022-11-21T17:06:35.946Z,21.10
2022-11-21T17:09:08.784Z,23.40
2022-11-21T17:11:41.252Z,24.80
2022-11-21T17:14:15.096Z,21.80
2022-11-21T17:16:48.965Z,30.20
2022-11-21T17:19:22.240Z,25.30
2022-11-21T17:21:55.173Z,20.30
2022-11-21T17:24:28.032Z,22.20
2022-11-21T17:27:02.697Z,31.50
2022-11-21T17:29:35.285Z,28.00
2022-11-21T17:32:08.262Z,28.30
2022-11-21T17:34:41.041Z,30.70
2022-11-21T17:37:13.690Z,29.40
2022-11-21T17:39:46.193Z,31.10
2022-11-21T17:42:18.626Z,34.90
2022-11-21T17:44:51.350Z,24.70
2022-11-21T17:47:23.931Z,33.90
2022-11-21T17:49:58.975Z,34.20
2022-11-21T17:52:33.678Z,28.20
2022-11-21T17:55:07.054Z,31.40
2022-11-21T17:57:39.644Z,34.20
2022-11-21T18:00:15.667Z,29.40
2022-11-21T18:02:48.191Z,33.30
2022-11-21T18:05:20.775Z,31.20
2022-11-21T18:07:53.236Z,17.30
2022-11-21T18:10:42.812Z,35.70
2022-11-21T18:13:16.126Z,37.50
2022-11-21T18:15:48.868Z,30.70
2022-11-21T18:18:21.618Z,43.00
2022-11-21T18:20:54.409Z,29.50
2022-11-21T18:23:28.597Z,33.40
2022-11-21T18:26:06.364Z,34.60
2022-11-21T18:28:38.997Z,34.30
2022-11-21T18:31:13.498Z,25.00
2022-11-21T18:33:49.315Z,33.40
2022-11-21T18:36:22.648Z,31.50
2022-11-21T18:39:02.963Z,27.80
2022-11-21T18:41:38.950Z,27.60
2022-11-21T18:44:20.095Z,30.50
2022-11-21T18:46:54.317Z,34.90
2022-11-21T18:49:27.112Z,29.00
2022-11-21T18:51:59.909Z,30.80
2022-11-21T18:54:32.492Z,25.90
2022-11-21T18:57:05.205Z,33.80
2022-11-21T18:59:37.893Z,28.90
2022-11-21T19:02:12.144Z,35.00
2022-11-21T19:04:45.864Z,24.80
2022-11-21T19:07:18.592Z,16.70
2022-11-21T19:09:51.279Z,17.80
2022-11-21T19:12:23.830Z,22.20
2022-11-21T19:14:56.351Z,21.50
2022-11-21T19:17:28.838Z,24.20
2022-11-21T19:20:01.440Z,23.30
2022-11-21T19:22:34.010Z,21.40
2022-11-21T19:25:07.902Z,22.00
2022-11-21T19:27:40.478Z,18.30
2022-11-21T19:30:15.208Z,28.70
2022-11-21T19:32:47.851Z,40.80
2022-11-21T19:35:20.748Z,25.40
2022-11-21T19:37:53.444Z,24.50
2022-11-21T19:40:49.823Z,20.30
2022-11-21T19:43:23.174Z,18.90
2022-11-21T19:45:58.139Z,21.60
2022-11-21T19:48:31.008Z,16.20
2022-11-21T19:51:05.074Z,36.40
2022-11-21T19:53:40.350Z,24.60
2022-11-21T19:56:15.929Z,29.90
2022-11-21T19:58:49.287Z,20.80
2022-11-21T20:01:23.989Z,24.60
2022-11-21T20:04:00.037Z,23.70
2022-11-21T20:06:34.859Z,24.80
2022-11-21T20:09:10.276Z,20.10
2022-11-21T20:11:44.483Z,16.70
2022-11-21T20:14:21.853Z,18.60
2022-11-21T20:16:55.785Z,19.30
2022-11-21T20:19:29.720Z,15.80
2022-11-21T20:22:02.326Z,16.30
2022-11-21T20:24:39.932Z,24.20
2022-11-21T20:27:14.183Z,20.70
2022-11-21T20:29:46.721Z,18.50
2022-11-21T20:32:19.302Z,21.40
2022-11-21T20:34:51.924Z,21.60
2022-11-21T20:37:24.751Z,20.50
2022-11-21T20:39:57.250Z,14.50
2022-11-21T20:42:29.686Z,20.60
2022-11-21T20:47:54.588Z,19.00
2022-11-21T20:51:14.748Z,21.10
2022-11-21T20:53:50.685Z,19.90
2022-11-21T20:56:13.939Z,18.70
2022-11-21T20:58:48.298Z,18.10
2022-11-21T21:01:24.035Z,24.20
2022-11-21T21:03:56.721Z,116.80
2022-11-21T21:06:30.947Z,68.60
2022-11-21T21:09:03.433Z,42.70
2022-11-21T21:11:53.095Z,29.30
2022-11-21T21:14:26.565Z,27.70
2022-11-21T21:16:59.076Z,31.80
2022-11-21T21:19:31.969Z,29.60
2022-11-21T21:22:05.226Z,32.40
2022-11-21T21:24:37.798Z,27.90
2022-11-21T21:27:10.329Z,31.80
2022-11-21T21:29:42.886Z,30.40
2022-11-21T21:32:15.523Z,24.70
2022-11-21T21:34:48.150Z,25.30
2022-11-21T21:37:22.017Z,53.20
2022-11-21T21:39:54.810Z,61.80
2022-11-21T21:42:27.239Z,64.60
2022-11-21T21:45:02.539Z,152.00
2022-11-21T21:47:35.071Z,150.20
2022-11-21T21:50:15.499Z,107.30
2022-11-21T21:52:48.325Z,103.50
2022-11-21T21:55:20.832Z,75.20
2022-11-21T21:57:53.388Z,55.80
2022-11-21T22:00:25.904Z,49.70
2022-11-21T22:02:58.350Z,43.30
2022-11-21T22:05:30.926Z,34.30
2022-11-21T22:08:03.928Z,26.60
2022-11-21T22:10:36.793Z,31.60
2022-11-21T22:13:09.238Z,36.60
2022-11-21T22:15:41.748Z,32.60
2022-11-21T22:18:14.209Z,29.70
2022-11-21T22:20:46.709Z,33.80
2022-11-21T22:23:19.312Z,33.00
2022-11-21T22:25:55.741Z,28.50
2022-11-21T22:28:29.839Z,32.60
2022-11-21T22:31:02.802Z,35.20
2022-11-21T22:33:35.850Z,34.50
2022-11-21T22:36:12.180Z,31.20
2022-11-21T22:38:45.251Z,36.00
2022-11-21T22:41:20.615Z,33.60
2022-11-21T22:43:56.704Z,34.70
2022-11-21T22:46:30.684Z,35.20
2022-11-21T22:49:03.806Z,35.10
2022-11-21T22:51:36.556Z,37.00
2022-11-21T22:54:09.042Z,34.60
2022-11-21T22:56:41.677Z,31.00
2022-11-21T22:59:16.331Z,35.10
2022-11-21T23:01:48.793Z,44.40
2022-11-21T23:04:21.372Z,38.60
2022-11-21T23:06:53.931Z,35.30
2022-11-21T23:09:26.773Z,30.20
2022-11-21T23:11:59.505Z,30.80
2022-11-21T23:14:31.980Z,33.60
2022-11-21T23:17:04.438Z,35.40
2022-11-21T23:19:37.140Z,36.50
2022-11-21T23:22:09.701Z,37.10
2022-11-21T23:24:42.207Z,42.80
2022-11-21T23:27:14.683Z,38.70
2022-11-21T23:29:47.172Z,39.30
2022-11-21T23:32:19.650Z,45.00
2022-11-21T23:34:52.172Z,38.60
2022-11-21T23:37:24.589Z,34.40
2022-11-21T23:39:57.046Z,31.90
2022-11-21T23:42:29.552Z,34.60
2022-11-21T23:45:01.989Z,30.50
2022-11-21T23:47:34.473Z,39.80
2022-11-21T23:50:08.215Z,37.20
2022-11-21T23:52:41.145Z,38.60
2022-11-21T23:55:14.235Z,41.10
2022-11-21T23:57:49.176Z,39.20
